Time;durP1;ratioP1;P1;durP2;ratioP2;P2;SDS_P1;SDS_P2;PMS_P1;PMS_P2;Temp;Humidity;BMP_temperature;BMP_pressure;BME280_temperature;BME280_humidity;BME280_pressure;Samples;Min_cycle;Max_cycle;Signal;HPM_P1;HPM_P2
2023/10/28 00:01:57;;;;;;;8.02;2.13;;;;;;;10.33;100.00;97528.50;5046549;28;20087;-42
2023/10/28 00:04:24;;;;;;;9.20;2.08;;;;;;;10.33;100.00;97527.72;5045288;28;20103;-42
2023/10/28 00:06:52;;;;;;;14.32;3.20;;;;;;;10.30;100.00;97518.28;5047297;28;20135;-42
2023/10/28 00:09:20;;;;;;;18.20;4.57;;;;;;;10.28;100.00;97523.47;5042155;28;20490;-43
2023/10/28 00:11:46;;;;;;;13.18;2.00;;;;;;;10.27;100.00;97518.34;5037707;28;20044;-43
2023/10/28 00:14:14;;;;;;;9.32;1.67;;;;;;;10.27;100.00;97515.59;5043564;28;20041;-43
2023/10/28 00:16:41;;;;;;;10.73;2.22;;;;;;;10.26;100.00;97506.50;5046430;28;20063;-43
2023/10/28 00:19:08;;;;;;;9.40;1.63;;;;;;;10.25;100.00;97501.38;5044816;28;20033;-43
2023/10/28 00:21:35;;;;;;;15.02;2.38;;;;;;;10.22;100.00;97503.00;5036570;28;20499;-42
2023/10/28 00:24:02;;;;;;;9.23;2.88;;;;;;;10.21;100.00;97492.38;5041054;28;20473;-42
2023/10/28 00:26:29;;;;;;;18.05;4.50;;;;;;;10.16;100.00;97488.13;5037120;28;20482;-42
2023/10/28 00:28:56;;;;;;;12.77;3.50;;;;;;;10.13;100.00;97488.97;5043148;28;20476;-42
2023/10/28 00:31:23;;;;;;;15.88;3.63;;;;;;;10.09;100.00;97485.44;5037935;28;20094;-44
2023/10/28 00:33:51;;;;;;;10.48;3.35;;;;;;;10.07;100.00;97493.38;5036873;28;20036;-43
2023/10/28 00:36:18;;;;;;;15.82;3.05;;;;;;;10.05;100.00;97489.47;5042009;28;20487;-43
2023/10/28 00:38:45;;;;;;;21.27;3.28;;;;;;;10.03;100.00;97487.16;5041032;28;20441;-42
2023/10/28 00:41:11;;;;;;;14.27;3.58;;;;;;;10.01;100.00;97489.53;5029898;28;20081;-42
2023/10/28 00:43:38;;;;;;;16.15;3.00;;;;;;;9.99;100.00;97494.69;5045760;28;20037;-42
2023/10/28 00:46:07;;;;;;;17.42;3.55;;;;;;;9.96;100.00;97492.78;5047469;28;20049;-46
2023/10/28 00:48:34;;;;;;;17.10;3.50;;;;;;;9.94;100.00;97491.63;5046622;28;20115;-44
2023/10/28 00:51:01;;;;;;;15.35;4.20;;;;;;;9.91;100.00;97490.47;5045062;28;20057;-44
2023/10/28 00:53:31;;;;;;;17.10;3.17;;;;;;;9.87;100.00;97492.53;5044146;28;20041;-42
2023/10/28 00:56:00;;;;;;;13.85;3.67;;;;;;;9.84;100.00;97493.38;5033714;28;20385;-43
2023/10/28 00:58:27;;;;;;;16.95;3.22;;;;;;;9.82;100.00;97487.50;5034199;28;20040;-45
2023/10/28 01:00:54;;;;;;;14.73;3.28;;;;;;;9.82;100.00;97489.47;5045271;28;20144;-45
2023/10/28 01:03:21;;;;;;;17.42;2.97;;;;;;;9.80;100.00;97487.09;5046501;28;20052;-45
2023/10/28 01:05:48;;;;;;;13.40;3.70;;;;;;;9.80;100.00;97492.63;5046214;28;20045;-43
2023/10/28 01:08:15;;;;;;;14.68;3.20;;;;;;;9.79;100.00;97488.31;5047344;28;20388;-43
2023/10/28 01:10:41;;;;;;;13.80;2.40;;;;;;;9.78;100.00;97486.75;5044913;28;20055;-43
2023/10/28 01:13:08;;;;;;;8.38;2.03;;;;;;;9.76;100.00;97489.16;5046866;28;20049;-42
2023/10/28 01:15:35;;;;;;;21.25;4.53;;;;;;;9.73;100.00;97490.78;5045610;28;20061;-44
2023/10/28 01:18:03;;;;;;;20.88;2.88;;;;;;;9.70;100.00;97485.31;5037262;28;20045;-44
2023/10/28 01:20:31;;;;;;;16.65;2.88;;;;;;;9.69;100.00;97484.50;5041538;28;20057;-42
2023/10/28 01:22:58;;;;;;;12.30;2.58;;;;;;;9.67;100.00;97486.91;5046400;28;20087;-43
2023/10/28 01:25:27;;;;;;;11.88;2.55;;;;;;;9.66;100.00;97490.09;5034100;28;20164;-45
2023/10/28 01:27:53;;;;;;;15.23;2.78;;;;;;;9.64;100.00;97492.47;5046656;28;20073;-43
2023/10/28 01:30:20;;;;;;;7.43;2.47;;;;;;;9.63;100.00;97482.66;5037350;28;20048;-48
2023/10/28 01:32:47;;;;;;;14.65;2.83;;;;;;;9.62;100.00;97478.31;5046430;28;20079;-48
2023/10/28 01:35:14;;;;;;;16.35;3.50;;;;;;;9.61;100.00;97485.06;5046902;28;20033;-45
2023/10/28 01:37:42;;;;;;;9.70;2.88;;;;;;;9.61;100.00;97491.34;5045252;28;20882;-44
2023/10/28 01:40:13;;;;;;;10.80;3.00;;;;;;;9.60;100.00;97486.25;5046300;28;20544;-44
2023/10/28 01:42:42;;;;;;;9.02;2.53;;;;;;;9.59;100.00;97484.69;5037316;28;20120;-42
2023/10/28 01:45:10;;;;;;;8.20;2.85;;;;;;;9.59;100.00;97484.69;5039635;28;20495;-43
2023/10/28 01:47:42;;;;;;;21.27;4.35;;;;;;;9.60;100.00;97487.03;5045682;28;20053;-42
2023/10/28 01:50:12;;;;;;;;;;;;;;;9.58;100.00;97481.13;5043592;28;20068;-43
2023/10/28 01:52:40;;;;;;;12.50;2.97;;;;;;;9.56;100.00;97477.22;5044804;28;20472;-43
2023/10/28 01:55:07;;;;;;;13.27;1.92;;;;;;;9.54;100.00;97476.88;5041443;28;20455;-42
2023/10/28 01:57:35;;;;;;;9.07;2.35;;;;;;;9.54;100.00;97482.38;5045329;28;20099;-42
2023/10/28 02:00:06;;;;;;;13.07;2.20;;;;;;;9.54;100.00;97483.19;5041571;28;20067;-44
2023/10/28 02:02:34;;;;;;;9.27;2.40;;;;;;;9.54;100.00;97474.09;5039005;28;20760;-42
2023/10/28 02:05:01;;;;;;;8.70;2.85;;;;;;;9.56;100.00;97477.22;5045260;28;20049;-44
2023/10/28 02:07:28;;;;;;;7.57;2.65;;;;;;;9.55;100.00;97470.94;5044664;28;20095;-45
2023/10/28 02:09:55;;;;;;;15.02;4.75;;;;;;;9.57;100.00;97476.81;5046234;28;21909;-44
2023/10/28 02:12:21;;;;;;;8.25;1.90;;;;;;;9.57;100.00;97479.59;5037926;28;20040;-43
2023/10/28 02:14:50;;;;;;;10.93;3.47;;;;;;;9.58;100.00;97472.09;5045152;28;20041;-44
2023/10/28 02:17:18;;;;;;;6.50;1.75;;;;;;;9.60;100.00;97458.63;5034455;28;20043;-43
2023/10/28 02:19:46;;;;;;;10.70;2.33;;;;;;;9.61;100.00;97466.47;5044527;28;20115;-43
2023/10/28 02:22:14;;;;;;;6.85;2.60;;;;;;;9.64;100.00;97476.69;5043774;28;20045;-43
2023/10/28 02:24:41;;;;;;;12.93;2.20;;;;;;;9.67;100.00;97475.88;5044607;28;20056;-44
2023/10/28 02:27:10;;;;;;;7.13;2.25;;;;;;;9.69;100.00;97478.19;5046511;28;20045;-44
2023/10/28 02:29:39;;;;;;;7.68;2.53;;;;;;;9.70;100.00;97483.31;5049067;28;20694;-42
2023/10/28 02:32:08;;;;;;;12.77;2.67;;;;;;;9.72;100.00;97477.38;5045821;28;20072;-46
2023/10/28 02:34:36;;;;;;;5.78;1.63;;;;;;;9.72;100.00;97478.16;5049147;28;20041;-43
2023/10/28 02:37:05;;;;;;;9.18;1.80;;;;;;;9.73;100.00;97468.69;5049122;28;20126;-44
2023/10/28 02:39:32;;;;;;;7.35;1.55;;;;;;;9.73;100.00;97462.38;5039326;28;20044;-42
2023/10/28 02:42:00;;;;;;;9.73;2.10;;;;;;;9.74;100.00;97466.69;5048418;28;20103;-44
2023/10/28 02:44:28;;;;;;;5.20;1.80;;;;;;;9.76;100.00;97469.81;5042431;28;20042;-43
2023/10/28 02:46:55;;;;;;;6.20;1.75;;;;;;;9.75;100.00;97465.47;5047026;28;20041;-44
2023/10/28 02:49:22;;;;;;;4.82;1.85;;;;;;;9.74;100.00;97469.47;5047959;28;20119;-43
2023/10/28 02:51:49;;;;;;;9.68;1.65;;;;;;;9.71;100.00;97465.56;5047110;28;20076;-43
2023/10/28 02:54:15;;;;;;;5.10;1.70;;;;;;;9.67;100.00;97456.53;5047684;28;20037;-47
2023/10/28 02:56:42;;;;;;;17.70;2.55;;;;;;;9.64;100.00;97454.59;5041415;28;20044;-42
2023/10/28 02:59:11;;;;;;;23.23;3.00;;;;;;;9.61;100.00;97449.16;5048332;28;20045;-43
2023/10/28 03:01:39;;;;;;;6.80;1.67;;;;;;;9.60;100.00;97447.59;5125395;22;20053;-43
2023/10/28 03:04:07;;;;;;;8.48;1.60;;;;;;;9.57;100.00;97446.44;5008967;28;20045;-42
2023/10/28 03:06:34;;;;;;;4.60;1.67;;;;;;;9.58;100.00;97438.94;5000783;28;20483;-42
2023/10/28 03:09:00;;;;;;;4.65;1.50;;;;;;;9.57;100.00;97440.91;5007851;28;20030;-45
2023/10/28 03:11:29;;;;;;;11.68;1.77;;;;;;;9.58;100.00;97438.94;5008886;28;20057;-43
2023/10/28 03:13:56;;;;;;;7.47;1.80;;;;;;;9.56;100.00;97444.09;5008743;28;20574;-42
2023/10/28 03:16:22;;;;;;;8.57;1.95;;;;;;;9.56;100.00;97433.03;5007596;28;20395;-43
2023/10/28 03:18:49;;;;;;;10.63;2.20;;;;;;;9.56;100.00;97430.28;5008785;28;20038;-43
2023/10/28 03:21:16;;;;;;;8.90;1.30;;;;;;;9.56;100.00;97430.28;5007496;28;20104;-43
2023/10/28 03:23:43;;;;;;;6.72;1.45;;;;;;;9.55;100.00;97439.78;5007864;28;20077;-42
2023/10/28 03:26:10;;;;;;;7.38;1.90;;;;;;;9.55;100.00;97439.78;5008573;28;20058;-43
2023/10/28 03:28:36;;;;;;;8.02;1.73;;;;;;;9.55;100.00;97440.56;5007962;28;20069;-44
2023/10/28 03:31:10;;;;;;;4.95;1.50;;;;;;;9.57;100.00;97442.91;5006954;28;20045;-44
2023/10/28 03:33:37;;;;;;;6.47;1.65;;;;;;;9.56;100.00;97441.31;5005705;28;20688;-42
2023/10/28 03:36:11;;;;;;;13.55;2.15;;;;;;;9.58;100.00;97445.22;4997906;28;20069;-43
2023/10/28 03:38:38;;;;;;;11.18;1.80;;;;;;;9.57;100.00;97431.84;5007225;28;20520;-43
2023/10/28 03:41:09;;;;;;;11.05;1.50;;;;;;;9.56;100.00;97428.28;5008524;28;20057;-42
2023/10/28 03:43:36;;;;;;;9.32;1.65;;;;;;;9.56;100.00;97422.78;5007928;28;20379;-43
2023/10/28 03:46:03;;;;;;;13.73;2.47;;;;;;;9.56;100.00;97420.00;5008082;28;20069;-42
2023/10/28 03:48:31;;;;;;;9.05;2.13;;;;;;;9.56;100.00;97422.78;5007215;28;20092;-42
2023/10/28 03:50:57;;;;;;;13.35;2.10;;;;;;;9.56;100.00;97424.75;5006220;28;20049;-43
2023/10/28 03:53:24;;;;;;;14.10;2.53;;;;;;;9.56;100.00;97419.22;5006576;28;20041;-43
2023/10/28 03:55:51;;;;;;;12.68;2.47;;;;;;;9.56;100.00;97419.22;5008189;28;20045;-43
2023/10/28 03:58:18;;;;;;;13.57;3.20;;;;;;;9.58;100.00;97422.38;5006499;28;20088;-43
2023/10/28 04:00:45;;;;;;;17.27;3.83;;;;;;;9.61;100.00;97421.53;5007160;28;20038;-42
2023/10/28 04:03:12;;;;;;;11.05;2.13;;;;;;;9.63;100.00;97425.44;5007897;28;20054;-42
2023/10/28 04:05:39;;;;;;;15.55;2.25;;;;;;;9.67;100.00;97422.59;5008302;28;20076;-43
2023/10/28 04:08:06;;;;;;;9.48;2.25;;;;;;;9.68;100.00;97432.47;5006718;28;20529;-43
2023/10/28 04:10:33;;;;;;;17.08;2.38;;;;;;;9.71;100.00;97423.34;5022583;28;20048;-43
2023/10/28 04:13:00;;;;;;;10.32;2.95;;;;;;;9.72;100.00;97422.91;5006371;28;20049;-43
2023/10/28 04:15:27;;;;;;;11.45;2.40;;;;;;;9.73;100.00;97429.22;4996909;28;20148;-48
2023/10/28 04:17:53;;;;;;;17.08;3.42;;;;;;;9.73;100.00;97423.69;5007358;28;20394;-44
2023/10/28 04:20:20;;;;;;;9.18;3.30;;;;;;;9.71;100.00;97426.88;5007635;28;20042;-44
2023/10/28 04:22:47;;;;;;;13.48;2.50;;;;;;;9.70;100.00;97425.31;5007376;28;20037;-43
2023/10/28 04:25:14;;;;;;;12.40;2.95;;;;;;;9.69;100.00;97434.78;5007413;28;20057;-42
2023/10/28 04:27:41;;;;;;;13.35;3.40;;;;;;;9.69;100.00;97436.78;5006077;28;20050;-42
2023/10/28 04:30:10;;;;;;;15.32;2.63;;;;;;;9.67;100.00;97441.94;5006625;28;20499;-42
2023/10/28 04:32:38;;;;;;;9.63;2.42;;;;;;;9.66;100.00;97435.63;5006579;28;20124;-45
2023/10/28 04:35:06;;;;;;;8.40;1.67;;;;;;;9.65;100.00;97436.84;5005969;28;20061;-42
2023/10/28 04:37:52;;;;;;;8.15;1.83;;;;;;;9.63;100.00;97433.72;4998880;28;20096;-42
2023/10/28 04:40:19;;;;;;;15.82;2.72;;;;;;;9.61;100.00;97443.63;5003865;28;20046;-42
2023/10/28 04:42:47;;;;;;;13.15;2.10;;;;;;;9.60;100.00;97431.00;5006898;28;20042;-42
2023/10/28 04:45:14;;;;;;;9.73;1.95;;;;;;;9.58;100.00;97438.94;5002641;28;20054;-44
2023/10/28 04:47:41;;;;;;;8.48;2.10;;;;;;;9.58;100.00;97433.41;5004881;28;20161;-44
2023/10/28 04:50:08;;;;;;;13.30;2.28;;;;;;;9.57;100.00;97440.13;5005237;28;20115;-43
2023/10/28 04:52:35;;;;;;;8.68;1.73;;;;;;;9.57;100.00;97432.63;5005974;28;20038;-43
2023/10/28 04:55:02;;;;;;;15.10;2.45;;;;;;;9.57;100.00;97432.63;5006707;28;20470;-42
2023/10/28 04:57:29;;;;;;;10.32;2.20;;;;;;;9.56;100.00;97427.50;5007185;28;20561;-44
2023/10/28 04:59:55;;;;;;;7.03;2.25;;;;;;;9.53;100.00;97433.91;5006140;28;20041;-44
2023/10/28 05:02:22;;;;;;;7.47;2.03;;;;;;;9.50;100.00;97437.50;5006225;28;20054;-42
2023/10/28 05:04:49;;;;;;;11.00;1.92;;;;;;;9.48;100.00;97434.34;5004896;28;20048;-48
2023/10/28 05:07:16;;;;;;;11.70;2.42;;;;;;;9.47;100.00;97444.63;4999642;28;20038;-42
2023/10/28 05:09:43;;;;;;;4.22;1.67;;;;;;;9.46;100.00;97436.75;5006454;28;20053;-43
2023/10/28 05:12:10;;;;;;;8.25;1.48;;;;;;;9.45;100.00;97424.16;5006419;28;20074;-42
2023/10/28 05:14:36;;;;;;;6.13;2.13;;;;;;;9.41;100.00;97432.50;5002396;28;20044;-42
2023/10/28 05:17:03;;;;;;;7.32;2.35;;;;;;;9.38;100.00;97438.06;5007067;28;20123;-42
2023/10/28 05:19:30;;;;;;;9.00;1.98;;;;;;;9.35;100.00;97442.44;5004723;28;20081;-43
2023/10/28 05:22:01;;;;;;;13.73;2.92;;;;;;;9.31;100.00;97440.94;5005756;28;20137;-47
2023/10/28 05:24:29;;;;;;;9.55;2.05;;;;;;;9.30;100.00;97448.44;5006321;28;20089;-42
2023/10/28 05:26:57;;;;;;;7.63;2.70;;;;;;;9.28;100.00;97450.81;5003323;28;20129;-43
2023/10/28 05:29:27;;;;;;;6.38;1.98;;;;;;;9.26;100.00;97456.00;5006238;28;20042;-44
2023/10/28 05:31:56;;;;;;;2.70;1.40;;;;;;;9.25;100.00;97453.63;5006318;28;20046;-42
2023/10/28 05:34:23;;;;;;;13.27;2.33;;;;;;;9.25;100.00;97448.09;5006120;28;20045;-44
2023/10/28 05:36:50;;;;;;;4.30;1.90;;;;;;;9.26;100.00;97444.16;5005847;28;20034;-42
2023/10/28 05:39:17;;;;;;;8.95;1.63;;;;;;;9.25;100.00;97442.59;5006670;28;20040;-42
2023/10/28 05:41:44;;;;;;;3.72;1.10;;;;;;;9.26;100.00;97450.47;5006096;28;20030;-44
2023/10/28 05:44:11;;;;;;;6.72;1.20;;;;;;;9.27;100.00;97454.00;5005665;28;20045;-42
2023/10/28 05:46:37;;;;;;;2.25;0.90;;;;;;;9.29;100.00;97454.38;5005752;28;20563;-43
2023/10/28 05:49:04;;;;;;;7.35;1.45;;;;;;;9.30;100.00;97455.91;5006684;28;20042;-43
2023/10/28 05:51:35;;;;;;;3.30;0.90;;;;;;;9.30;100.00;97455.91;5002245;28;20035;-44
2023/10/28 05:54:04;;;;;;;5.45;1.50;;;;;;;9.29;100.00;97454.38;5005710;28;20066;-43
2023/10/28 05:56:31;;;;;;;5.13;1.20;;;;;;;9.28;100.00;97447.28;5006089;28;20038;-47
2023/10/28 05:58:58;;;;;;;5.30;1.40;;;;;;;9.27;100.00;97456.75;5006087;28;20042;-43
2023/10/28 06:01:25;;;;;;;3.30;1.13;;;;;;;9.28;100.00;97452.81;5006093;28;20511;-43
2023/10/28 06:03:52;;;;;;;4.60;1.48;;;;;;;9.28;100.00;97459.09;5008670;28;20041;-43
2023/10/28 06:06:18;;;;;;;11.85;3.00;;;;;;;9.30;100.00;97461.44;5009491;28;20042;-49
2023/10/28 06:08:45;;;;;;;12.63;1.63;;;;;;;9.31;100.00;97460.25;5009485;28;20411;-44
2023/10/28 06:11:12;;;;;;;11.57;1.42;;;;;;;9.30;100.00;97448.44;5006491;28;20137;-44
2023/10/28 06:13:39;;;;;;;8.10;1.55;;;;;;;9.29;100.00;97466.19;5009331;28;20408;-42
2023/10/28 06:16:06;;;;;;;8.55;1.33;;;;;;;9.29;100.00;97459.91;5009346;28;20104;-43
2023/10/28 06:18:32;;;;;;;7.57;1.33;;;;;;;9.30;100.00;97461.44;5009549;28;20041;-42
2023/10/28 06:21:00;;;;;;;11.45;2.35;;;;;;;9.29;100.00;97460.69;5008500;28;20550;-43
2023/10/28 06:23:27;;;;;;;3.60;1.30;;;;;;;9.28;100.00;97464.63;5007864;28;20073;-45
2023/10/28 06:25:54;;;;;;;6.38;0.93;;;;;;;9.29;100.00;97470.94;5008723;28;20037;-43
2023/10/28 06:28:22;;;;;;;2.75;0.77;;;;;;;9.31;100.00;97463.81;5009630;28;20046;-45
2023/10/28 06:30:49;;;;;;;7.05;1.10;;;;;;;9.33;100.00;97472.44;5008398;28;20065;-45
2023/10/28 06:33:17;;;;;;;8.95;1.27;;;;;;;9.33;100.00;97466.13;5009275;28;20045;-44
2023/10/28 06:35:45;;;;;;;8.85;1.77;;;;;;;9.35;100.00;97467.28;5009056;28;20563;-44
2023/10/28 06:38:12;;;;;;;4.88;1.48;;;;;;;9.36;100.00;97466.09;5009097;28;20133;-44
2023/10/28 06:40:39;;;;;;;5.18;1.48;;;;;;;9.38;100.00;97466.44;5008730;28;20053;-44
2023/10/28 06:43:06;;;;;;;9.90;3.97;;;;;;;9.39;100.00;97475.53;5005235;28;20183;-44
2023/10/28 06:45:32;;;;;;;10.57;2.35;;;;;;;9.39;100.00;97465.25;5008816;28;20037;-46
2023/10/28 06:47:59;;;;;;;19.00;3.67;;;;;;;9.40;100.00;97477.09;5007680;28;20475;-43
2023/10/28 06:50:27;;;;;;;11.27;2.30;;;;;;;9.41;100.00;97478.63;5007807;28;20055;-44
2023/10/28 06:52:54;;;;;;;5.15;1.50;;;;;;;9.41;100.00;97484.94;5008687;28;20647;-44
2023/10/28 06:55:22;;;;;;;8.73;2.20;;;;;;;9.44;100.00;97472.28;5005745;28;20471;-46
2023/10/28 06:57:49;;;;;;;11.50;3.83;;;;;;;9.45;100.00;97473.88;5008623;28;20108;-44
2023/10/28 07:00:16;;;;;;;2.55;0.90;;;;;;;9.48;100.00;97464.72;5006467;28;20069;-44
2023/10/28 07:02:44;;;;;;;6.20;1.20;;;;;;;9.48;100.00;97470.25;5001916;28;20058;-41
2023/10/28 07:05:11;;;;;;;3.97;1.00;;;;;;;9.49;100.00;97471.81;5003507;28;20038;-43
2023/10/28 07:07:38;;;;;;;10.77;1.20;;;;;;;9.49;100.00;97461.56;5006721;28;20052;-44
2023/10/28 07:10:06;;;;;;;6.00;1.10;;;;;;;9.49;100.00;97463.53;5006087;28;20044;-43
2023/10/28 07:12:33;;;;;;;5.22;1.00;;;;;;;9.49;100.00;97474.56;5007327;28;20038;-44
2023/10/28 07:15:00;;;;;;;2.58;0.98;;;;;;;9.49;100.00;97469.06;5007561;28;20140;-42
2023/10/28 07:17:27;;;;;;;6.55;1.50;;;;;;;9.49;100.00;97458.00;4998322;28;20033;-44
2023/10/28 07:19:54;;;;;;;4.18;0.90;;;;;;;9.49;100.00;97469.84;5004206;28;20116;-43
2023/10/28 07:22:21;;;;;;;11.82;1.25;;;;;;;9.50;100.00;97470.63;5004312;28;20030;-46
2023/10/28 07:24:48;;;;;;;7.05;1.05;;;;;;;9.54;100.00;97469.38;5006780;28;20042;-43
2023/10/28 07:27:18;;;;;;;10.35;1.23;;;;;;;9.56;100.00;97466.19;5021797;28;20103;-45
2023/10/28 07:29:45;;;;;;;10.02;2.33;;;;;;;9.59;100.00;97476.38;5021802;28;20056;-46
2023/10/28 07:32:12;;;;;;;4.85;0.73;;;;;;;9.62;100.00;97473.59;5007612;28;20045;-44
2023/10/28 07:34:39;;;;;;;4.22;1.08;;;;;;;9.67;100.00;97475.09;5007419;28;20045;-44
2023/10/28 07:37:06;;;;;;;6.05;0.85;;;;;;;9.69;100.00;97480.97;5006921;28;20045;-43
2023/10/28 07:39:34;;;;;;;7.18;1.00;;;;;;;9.71;100.00;97476.63;5006065;28;20029;-44
2023/10/28 07:42:01;;;;;;;10.50;1.20;;;;;;;9.74;100.00;97480.50;5002027;28;20108;-43
2023/10/28 07:44:28;;;;;;;2.78;0.88;;;;;;;9.75;100.00;97482.06;5003450;28;20107;-43
2023/10/28 07:46:54;;;;;;;5.35;1.10;;;;;;;9.75;100.00;97482.06;5005731;28;20054;-42
2023/10/28 07:49:21;;;;;;;5.35;1.10;;;;;;;9.77;100.00;97480.44;5004213;28;20046;-46
2023/10/28 07:51:48;;;;;;;7.18;1.15;;;;;;;9.78;100.00;97476.50;5022326;28;20034;-45
2023/10/28 07:54:16;;;;;;;7.75;1.15;;;;;;;9.78;100.00;97481.22;5000150;28;20050;-46
2023/10/28 07:56:43;;;;;;;7.72;1.27;;;;;;;9.78;100.00;97487.53;4997749;28;20129;-45
2023/10/28 07:59:10;;;;;;;7.68;1.90;;;;;;;9.77;100.00;97490.69;5006512;28;20054;-44
2023/10/28 08:01:39;;;;;;;6.80;1.17;;;;;;;9.77;100.00;97496.22;5003446;28;20054;-44
2023/10/28 08:04:07;;;;;;;8.38;1.55;;;;;;;9.77;100.00;97491.50;5007358;28;20547;-47
2023/10/28 08:06:36;;;;;;;9.20;2.20;;;;;;;9.79;100.00;97493.84;4996345;28;20073;-43
2023/10/28 08:09:08;;;;;;;3.92;1.40;;;;;;;9.80;100.00;97493.41;4998847;28;20052;-50
2023/10/28 08:11:35;;;;;;;22.52;2.38;;;;;;;9.82;100.00;97497.75;5005929;28;20046;-43
2023/10/28 08:14:03;;;;;;;11.18;1.55;;;;;;;9.84;100.00;97501.66;5002815;28;20780;-46
2023/10/28 08:16:30;;;;;;;7.97;1.40;;;;;;;9.87;100.00;97495.31;5002981;28;20141;-46
2023/10/28 08:18:58;;;;;;;8.38;1.63;;;;;;;9.90;100.00;97499.97;5007111;28;20530;-47
2023/10/28 08:21:25;;;;;;;6.72;1.63;;;;;;;9.94;100.00;97503.47;5004131;28;20046;-45
2023/10/28 08:23:51;;;;;;;6.88;1.50;;;;;;;9.98;100.00;97500.66;5005942;28;20045;-48
2023/10/28 08:26:18;;;;;;;13.25;2.78;;;;;;;10.00;100.00;97499.03;5001534;28;20045;-48
2023/10/28 08:28:52;;;;;;;29.48;10.55;;;;;;;10.02;100.00;97502.16;4993455;28;20038;-47
2023/10/28 08:31:19;;;;;;;47.15;15.82;;;;;;;10.04;100.00;97504.47;5007257;28;20042;-44
2023/10/28 08:33:49;;;;;;;54.20;20.92;;;;;;;10.06;100.00;97500.09;5007304;28;20049;-43
2023/10/28 08:36:17;;;;;;;43.45;16.80;;;;;;;10.12;100.00;97512.28;5005856;28;20399;-43
2023/10/28 08:38:47;;;;;;;22.58;9.55;;;;;;;10.18;100.00;97507.84;5005910;28;20034;-43
2023/10/28 08:41:21;;;;;;;25.63;7.35;;;;;;;10.25;100.00;97498.63;5007822;28;20120;-44
2023/10/28 08:43:49;;;;;;;20.42;6.18;;;;;;;10.31;100.00;97503.25;5006949;28;20041;-44
2023/10/28 08:46:16;;;;;;;17.73;4.55;;;;;;;10.40;100.00;97502.72;5006054;28;20061;-45
2023/10/28 08:48:46;;;;;;;9.52;4.97;;;;;;;10.50;100.00;97503.72;5006969;28;20045;-47
2023/10/28 08:51:15;;;;;;;17.83;6.47;;;;;;;10.56;100.00;97497.28;5007247;28;20041;-45
2023/10/28 08:53:44;;;;;;;12.73;3.13;;;;;;;10.59;100.00;97495.66;5006727;28;20070;-43
2023/10/28 08:56:17;;;;;;;13.65;3.92;;;;;;;10.59;100.00;97495.66;5007043;28;20096;-45
2023/10/28 08:58:48;;;;;;;11.73;3.75;;;;;;;10.57;100.00;97495.28;5006956;28;20049;-43
2023/10/28 09:01:17;;;;;;;9.23;3.22;;;;;;;10.53;100.00;97487.06;5006624;28;20053;-44
2023/10/28 09:03:47;;;;;;;6.88;3.03;;;;;;;10.51;100.00;97489.44;5005965;28;20054;-45
2023/10/28 09:06:14;;;;;;;14.77;3.10;;;;;;;10.50;100.00;97503.72;5007611;28;20042;-45
2023/10/28 09:08:41;;;;;;;11.77;3.30;;;;;;;10.49;100.00;97502.16;5004882;28;20046;-48
2023/10/28 09:11:07;;;;;;;11.65;2.50;;;;;;;10.48;100.00;97501.38;5006844;28;20906;-46
2023/10/28 09:13:36;;;;;;;8.60;2.20;;;;;;;10.48;100.00;97504.16;5006866;28;20484;-43
2023/10/28 09:16:04;;;;;;;24.67;3.47;;;;;;;10.51;100.00;97500.50;5005755;28;20472;-46
2023/10/28 09:18:38;;;;;;;9.60;2.33;;;;;;;10.53;100.00;97502.88;5005733;28;20050;-48
2023/10/28 09:21:09;;;;;;;11.40;1.95;;;;;;;10.55;100.00;97506.00;5006847;28;20038;-43
2023/10/28 09:23:41;;;;;;;6.95;1.67;;;;;;;10.60;100.00;97511.03;5006548;28;20042;-49
2023/10/28 09:26:08;;;;;;;10.75;2.03;;;;;;;10.65;100.00;97505.00;5006710;28;20125;-47
2023/10/28 09:28:43;;;;;;;9.85;2.95;;;;;;;10.70;100.00;97505.31;5006629;28;20056;-44
2023/10/28 09:31:10;;;;;;;12.20;3.40;;;;;;;10.75;100.00;97509.59;5007173;28;20048;-44
2023/10/28 09:33:37;;;;;;;13.32;3.53;;;;;;;10.80;100.00;97515.38;5006400;28;20141;-47
2023/10/28 09:36:07;;;;;;;11.13;3.33;;;;;;;10.85;100.00;97517.69;4999188;28;20054;-43
2023/10/28 09:38:35;;;;;;;11.95;3.40;;;;;;;10.89;100.00;97523.13;5007379;28;20030;-47
2023/10/28 09:41:04;;;;;;;5.63;1.25;;;;;;;10.92;100.00;97527.81;5010173;28;20053;-46
2023/10/28 09:43:32;;;;;;;11.05;2.28;;;;;;;10.93;100.00;97530.13;5010389;28;20041;-44
2023/10/28 09:46:00;;;;;;;12.45;2.65;;;;;;;10.94;100.00;97523.41;5010881;28;20048;-44
2023/10/28 09:48:32;;;;;;;18.88;4.78;;;;;;;10.98;100.00;97524.13;5010138;28;20070;-45
2023/10/28 09:50:58;;;;;;;13.88;4.15;;;;;;;11.02;100.00;97532.34;5009811;28;20906;-44
2023/10/28 09:53:36;;;;;;;22.25;3.67;;;;;;;11.05;100.00;97530.72;5008809;28;20046;-45
2023/10/28 09:56:03;;;;;;;17.48;4.13;;;;;;;11.09;100.00;97523.13;5006064;28;20046;-44
2023/10/28 09:58:41;;;;;;;15.15;2.60;;;;;;;11.16;100.00;97522.97;5004587;28;20170;-44
2023/10/28 10:01:19;;;;;;;16.05;2.63;;;;;;;11.21;100.00;97531.56;5008889;28;20054;-47
2023/10/28 10:04:23;;;;;;;8.43;2.45;;;;;;;11.30;100.00;97534.56;5007627;28;20038;-44
2023/10/28 10:06:51;;;;;;;13.15;2.28;;;;;;;11.36;100.00;97538.38;5012655;28;20121;-45
2023/10/28 10:09:18;;;;;;;9.35;2.63;;;;;;;11.41;100.00;97529.53;5006868;28;20050;-44
2023/10/28 10:11:45;;;;;;;8.85;2.53;;;;;;;11.46;100.00;97531.06;5006907;28;20125;-45
2023/10/28 10:14:13;;;;;;;14.25;2.33;;;;;;;11.50;100.00;97528.97;5008259;28;20124;-49
2023/10/28 10:16:58;;;;;;;13.45;2.00;;;;;;;11.55;100.00;97540.34;5007329;28;20033;-46
2023/10/28 10:19:31;;;;;;;12.77;2.33;;;;;;;11.60;100.00;97541.81;5007924;28;20034;-51
2023/10/28 10:21:58;;;;;;;15.65;3.90;;;;;;;11.62;100.00;97540.16;5006790;28;20119;-50
2023/10/28 10:24:27;;;;;;;11.43;2.33;;;;;;;11.64;100.00;97528.66;5005779;28;20048;-45
2023/10/28 10:27:01;;;;;;;12.85;1.98;;;;;;;11.65;100.00;97535.00;5008660;28;20050;-46
2023/10/28 10:29:40;;;;;;;9.82;2.13;;;;;;;11.65;100.00;97532.22;5006490;28;20128;-46
2023/10/28 10:32:19;;;;;;;10.93;1.70;;;;;;;11.68;100.00;97537.66;5006872;28;20092;-43
2023/10/28 10:34:46;;;;;;;13.48;2.72;;;;;;;11.73;100.00;97528.88;5006746;28;20042;-45
2023/10/28 10:37:23;;;;;;;24.00;2.88;;;;;;;11.79;100.00;97529.13;5008647;28;20502;-51
2023/10/28 10:39:49;;;;;;;11.82;2.25;;;;;;;11.84;100.00;97528.63;5008209;28;20046;-46
2023/10/28 10:42:16;;;;;;;15.55;2.30;;;;;;;11.87;100.00;97523.00;5007872;28;20053;-46
2023/10/28 10:44:43;;;;;;;11.45;2.17;;;;;;;11.92;100.00;97541.09;5007678;28;20065;-46
2023/10/28 10:47:10;;;;;;;9.88;1.92;;;;;;;11.96;100.00;97530.72;4994757;28;20046;-47
2023/10/28 10:49:40;;;;;;;15.50;2.83;;;;;;;11.99;100.00;97524.31;5006910;28;20069;-46
2023/10/28 10:52:08;;;;;;;10.90;2.28;;;;;;;11.99;100.00;97524.31;5004451;28;20042;-51
2023/10/28 10:54:38;;;;;;;14.50;1.95;;;;;;;12.01;100.00;97533.00;5007841;28;20042;-48
2023/10/28 10:57:07;;;;;;;13.57;2.30;;;;;;;12.05;100.00;97534.44;5007585;28;20085;-46
2023/10/28 10:59:35;;;;;;;13.23;2.30;;;;;;;12.12;100.00;97534.31;5006619;28;20042;-45
2023/10/28 11:02:03;;;;;;;14.98;2.13;;;;;;;12.19;100.00;97538.88;5007221;28;20050;-45
2023/10/28 11:04:34;;;;;;;10.43;2.38;;;;;;;12.30;100.00;97530.28;5004385;28;20067;-46
2023/10/28 11:07:03;;;;;;;8.65;1.90;;;;;;;12.42;100.00;97535.13;5008210;28;20044;-46
2023/10/28 11:09:29;;;;;;;12.43;2.00;;;;;;;12.51;100.00;97527.75;5022150;28;20113;-50
2023/10/28 11:11:56;;;;;;;6.20;1.88;;;;;;;12.63;100.00;97526.25;4996168;28;20061;-48
2023/10/28 11:14:24;;;;;;;23.48;4.53;;;;;;;12.72;100.00;97516.09;5005475;28;20518;-46
2023/10/28 11:16:51;;;;;;;14.73;2.20;;;;;;;12.77;100.00;97532.22;5000927;28;20100;-45
2023/10/28 11:19:18;;;;;;;9.98;3.28;;;;;;;12.81;100.00;97521.78;5007694;28;20079;-46
2023/10/28 11:21:45;;;;;;;10.60;2.20;;;;;;;12.83;100.00;97513.81;5006639;28;20046;-45
2023/10/28 11:24:13;;;;;;;9.07;2.45;;;;;;;12.80;100.00;97514.69;5006876;28;20136;-47
2023/10/28 11:26:45;;;;;;;9.52;1.77;;;;;;;12.73;100.00;97517.66;4999395;28;20037;-47
2023/10/28 11:29:15;;;;;;;10.82;1.92;;;;;;;12.70;100.00;97507.44;5006539;28;20111;-45
2023/10/28 11:31:42;;;;;;;10.52;2.25;;;;;;;12.70;100.00;97501.88;5007487;28;20055;-48